Terminal Aerodrome Forecast
Issued by NWS

Home | Current Version | Previous Version | Text Only | Print | Product List | Glossary On
Versions: 1 2 3 4 5 6 7 8 9 10 11 12 13 14 15 16 17 18 19 20 21 22 23 24 25 26 27 28 29 30 31 32 33 34 35 36
000
FTUS45 KABQ 161124
TAFFMN
TAF
KFMN 161124Z 1612/1712 10006KT P6SM VCSH SCT025 BKN045
      TEMPO 1612/1615 3SM -RA BR OVC015
     FM161700 26006KT P6SM SCT025 BKN035
     FM162000 30010KT P6SM SCT025 BKN035
     FM171000 09006KT 6SM BR BKN020=

USA.gov is the U.S. government's official web portal to all federal, state and local government web resources and services.